sensor_id;sensor_type;location;lat;lon;timestamp;P1;durP1;ratioP1;P2;durP2;ratioP2
76202;SDS011;64985;46.364;17.008;2023-04-25T00:00:07;6.78;;;4.30;;
76202;SDS011;64985;46.364;17.008;2023-04-25T00:03:10;5.55;;;4.28;;
76202;SDS011;64985;46.364;17.008;2023-04-25T00:06:13;4.85;;;3.95;;
76202;SDS011;64985;46.364;17.008;2023-04-25T00:09:15;6.18;;;4.22;;
76202;SDS011;64985;46.364;17.008;2023-04-25T00:12:17;6.90;;;4.68;;
76202;SDS011;64985;46.364;17.008;2023-04-25T00:15:20;6.85;;;5.13;;
76202;SDS011;64985;46.364;17.008;2023-04-25T00:18:22;7.40;;;5.22;;
76202;SDS011;64985;46.364;17.008;2023-04-25T00:21:24;6.72;;;5.32;;
76202;SDS011;64985;46.364;17.008;2023-04-25T00:24:26;10.10;;;5.50;;
76202;SDS011;64985;46.364;17.008;2023-04-25T00:27:29;7.95;;;5.53;;
76202;SDS011;64985;46.364;17.008;2023-04-25T00:30:31;6.97;;;5.65;;
76202;SDS011;64985;46.364;17.008;2023-04-25T00:33:33;8.32;;;5.85;;
76202;SDS011;64985;46.364;17.008;2023-04-25T00:36:36;9.95;;;5.45;;
76202;SDS011;64985;46.364;17.008;2023-04-25T00:39:38;7.72;;;5.72;;
76202;SDS011;64985;46.364;17.008;2023-04-25T00:42:40;7.07;;;5.10;;
76202;SDS011;64985;46.364;17.008;2023-04-25T00:45:43;7.57;;;5.70;;
76202;SDS011;64985;46.364;17.008;2023-04-25T00:48:46;7.97;;;5.22;;
76202;SDS011;64985;46.364;17.008;2023-04-25T00:51:48;7.03;;;4.55;;
76202;SDS011;64985;46.364;17.008;2023-04-25T00:54:50;7.53;;;3.83;;
76202;SDS011;64985;46.364;17.008;2023-04-25T00:57:52;7.53;;;3.30;;
76202;SDS011;64985;46.364;17.008;2023-04-25T01:00:55;6.13;;;3.67;;
76202;SDS011;64985;46.364;17.008;2023-04-25T01:03:59;4.32;;;3.58;;
76202;SDS011;64985;46.364;17.008;2023-04-25T01:07:02;6.20;;;3.90;;
76202;SDS011;64985;46.364;17.008;2023-04-25T01:10:05;5.35;;;4.20;;
76202;SDS011;64985;46.364;17.008;2023-04-25T01:13:08;8.02;;;4.40;;
76202;SDS011;64985;46.364;17.008;2023-04-25T01:16:10;6.65;;;4.97;;
76202;SDS011;64985;46.364;17.008;2023-04-25T01:19:12;6.82;;;5.05;;
76202;SDS011;64985;46.364;17.008;2023-04-25T01:22:19;7.95;;;5.53;;
76202;SDS011;64985;46.364;17.008;2023-04-25T01:25:22;11.02;;;6.50;;
76202;SDS011;64985;46.364;17.008;2023-04-25T01:28:24;9.05;;;6.57;;
76202;SDS011;64985;46.364;17.008;2023-04-25T01:31:27;9.25;;;7.03;;
76202;SDS011;64985;46.364;17.008;2023-04-25T01:34:29;10.40;;;8.18;;
76202;SDS011;64985;46.364;17.008;2023-04-25T01:37:31;13.30;;;8.45;;
76202;SDS011;64985;46.364;17.008;2023-04-25T01:40:34;12.20;;;8.45;;
76202;SDS011;64985;46.364;17.008;2023-04-25T01:43:40;12.77;;;8.77;;
76202;SDS011;64985;46.364;17.008;2023-04-25T01:46:42;11.85;;;8.88;;
76202;SDS011;64985;46.364;17.008;2023-04-25T01:49:44;14.15;;;9.50;;
76202;SDS011;64985;46.364;17.008;2023-04-25T01:52:47;14.32;;;10.18;;
76202;SDS011;64985;46.364;17.008;2023-04-25T01:55:49;15.43;;;9.73;;
76202;SDS011;64985;46.364;17.008;2023-04-25T01:58:52;12.45;;;9.80;;
76202;SDS011;64985;46.364;17.008;2023-04-25T02:01:55;12.88;;;9.73;;
76202;SDS011;64985;46.364;17.008;2023-04-25T02:04:57;13.90;;;9.80;;
76202;SDS011;64985;46.364;17.008;2023-04-25T02:07:59;14.52;;;9.98;;
76202;SDS011;64985;46.364;17.008;2023-04-25T02:11:01;16.10;;;9.27;;
76202;SDS011;64985;46.364;17.008;2023-04-25T02:14:04;10.48;;;8.18;;
76202;SDS011;64985;46.364;17.008;2023-04-25T02:17:06;13.00;;;8.32;;
76202;SDS011;64985;46.364;17.008;2023-04-25T02:20:09;10.15;;;7.22;;
76202;SDS011;64985;46.364;17.008;2023-04-25T02:23:12;10.02;;;5.90;;
76202;SDS011;64985;46.364;17.008;2023-04-25T02:26:16;8.10;;;5.78;;
76202;SDS011;64985;46.364;17.008;2023-04-25T02:29:18;10.23;;;5.72;;
76202;SDS011;64985;46.364;17.008;2023-04-25T02:32:20;12.63;;;6.28;;
76202;SDS011;64985;46.364;17.008;2023-04-25T02:35:23;12.32;;;6.82;;
76202;SDS011;64985;46.364;17.008;2023-04-25T02:38:25;12.60;;;7.10;;
76202;SDS011;64985;46.364;17.008;2023-04-25T02:41:28;13.90;;;8.25;;
76202;SDS011;64985;46.364;17.008;2023-04-25T02:44:30;17.15;;;9.18;;
76202;SDS011;64985;46.364;17.008;2023-04-25T02:47:32;9.75;;;5.80;;
76202;SDS011;64985;46.364;17.008;2023-04-25T02:50:35;4.93;;;3.30;;
76202;SDS011;64985;46.364;17.008;2023-04-25T02:53:37;7.07;;;4.80;;
76202;SDS011;64985;46.364;17.008;2023-04-25T02:56:39;6.60;;;4.20;;
76202;SDS011;64985;46.364;17.008;2023-04-25T02:59:41;8.60;;;4.13;;
76202;SDS011;64985;46.364;17.008;2023-04-25T03:02:43;6.28;;;4.43;;
76202;SDS011;64985;46.364;17.008;2023-04-25T03:05:46;5.60;;;4.50;;
76202;SDS011;64985;46.364;17.008;2023-04-25T03:08:52;6.47;;;4.63;;
76202;SDS011;64985;46.364;17.008;2023-04-25T03:11:54;7.88;;;4.63;;
76202;SDS011;64985;46.364;17.008;2023-04-25T03:14:56;11.10;;;5.95;;
76202;SDS011;64985;46.364;17.008;2023-04-25T03:17:58;8.93;;;6.05;;
76202;SDS011;64985;46.364;17.008;2023-04-25T03:21:00;7.40;;;5.78;;
76202;SDS011;64985;46.364;17.008;2023-04-25T03:24:03;8.25;;;6.38;;
76202;SDS011;64985;46.364;17.008;2023-04-25T03:27:06;8.95;;;6.15;;
76202;SDS011;64985;46.364;17.008;2023-04-25T03:30:08;8.27;;;6.20;;
76202;SDS011;64985;46.364;17.008;2023-04-25T03:33:10;9.60;;;6.80;;
76202;SDS011;64985;46.364;17.008;2023-04-25T03:36:13;8.93;;;6.97;;
76202;SDS011;64985;46.364;17.008;2023-04-25T03:39:15;9.13;;;7.18;;
76202;SDS011;64985;46.364;17.008;2023-04-25T03:42:17;10.13;;;7.45;;
76202;SDS011;64985;46.364;17.008;2023-04-25T03:45:19;10.43;;;7.35;;
76202;SDS011;64985;46.364;17.008;2023-04-25T03:48:21;12.23;;;8.05;;
76202;SDS011;64985;46.364;17.008;2023-04-25T03:51:26;11.85;;;7.70;;
76202;SDS011;64985;46.364;17.008;2023-04-25T03:54:28;11.05;;;8.27;;
76202;SDS011;64985;46.364;17.008;2023-04-25T03:57:30;12.35;;;8.43;;
76202;SDS011;64985;46.364;17.008;2023-04-25T04:00:33;13.43;;;9.02;;
76202;SDS011;64985;46.364;17.008;2023-04-25T04:03:35;10.63;;;8.60;;
76202;SDS011;64985;46.364;17.008;2023-04-25T04:06:38;10.40;;;8.35;;
76202;SDS011;64985;46.364;17.008;2023-04-25T04:09:41;12.35;;;8.27;;
76202;SDS011;64985;46.364;17.008;2023-04-25T04:12:43;12.27;;;8.73;;
76202;SDS011;64985;46.364;17.008;2023-04-25T04:15:45;12.93;;;8.27;;
76202;SDS011;64985;46.364;17.008;2023-04-25T04:18:47;13.00;;;8.10;;
76202;SDS011;64985;46.364;17.008;2023-04-25T04:21:49;12.70;;;8.77;;
76202;SDS011;64985;46.364;17.008;2023-04-25T04:24:51;10.73;;;8.25;;
76202;SDS011;64985;46.364;17.008;2023-04-25T04:27:54;12.25;;;8.52;;
76202;SDS011;64985;46.364;17.008;2023-04-25T04:30:56;12.82;;;8.15;;
76202;SDS011;64985;46.364;17.008;2023-04-25T04:33:59;12.25;;;8.80;;
76202;SDS011;64985;46.364;17.008;2023-04-25T04:37:03;8.80;;;7.35;;
76202;SDS011;64985;46.364;17.008;2023-04-25T04:40:05;14.00;;;7.30;;
76202;SDS011;64985;46.364;17.008;2023-04-25T04:43:10;11.00;;;7.55;;
76202;SDS011;64985;46.364;17.008;2023-04-25T04:46:12;10.75;;;7.80;;
76202;SDS011;64985;46.364;17.008;2023-04-25T04:49:14;11.98;;;8.32;;
76202;SDS011;64985;46.364;17.008;2023-04-25T04:52:17;14.20;;;9.02;;
76202;SDS011;64985;46.364;17.008;2023-04-25T04:55:19;17.42;;;9.77;;
76202;SDS011;64985;46.364;17.008;2023-04-25T04:58:21;11.93;;;8.80;;
76202;SDS011;64985;46.364;17.008;2023-04-25T05:01:25;11.07;;;8.40;;
76202;SDS011;64985;46.364;17.008;2023-04-25T05:04:28;12.20;;;8.30;;
76202;SDS011;64985;46.364;17.008;2023-04-25T05:07:30;12.25;;;8.20;;
76202;SDS011;64985;46.364;17.008;2023-04-25T05:10:32;12.43;;;8.00;;
76202;SDS011;64985;46.364;17.008;2023-04-25T05:13:34;15.70;;;8.50;;
76202;SDS011;64985;46.364;17.008;2023-04-25T05:16:36;15.98;;;7.25;;
76202;SDS011;64985;46.364;17.008;2023-04-25T05:19:39;13.63;;;7.65;;
76202;SDS011;64985;46.364;17.008;2023-04-25T05:22:41;14.10;;;7.95;;
76202;SDS011;64985;46.364;17.008;2023-04-25T05:25:43;12.05;;;7.28;;
76202;SDS011;64985;46.364;17.008;2023-04-25T05:28:45;16.13;;;8.35;;
76202;SDS011;64985;46.364;17.008;2023-04-25T05:31:48;11.45;;;7.05;;
76202;SDS011;64985;46.364;17.008;2023-04-25T05:34:50;11.27;;;7.18;;
76202;SDS011;64985;46.364;17.008;2023-04-25T05:37:53;12.07;;;8.65;;
76202;SDS011;64985;46.364;17.008;2023-04-25T05:40:55;10.57;;;7.93;;
76202;SDS011;64985;46.364;17.008;2023-04-25T05:43:57;10.80;;;8.77;;
76202;SDS011;64985;46.364;17.008;2023-04-25T05:46:59;10.50;;;8.75;;
76202;SDS011;64985;46.364;17.008;2023-04-25T05:50:01;11.10;;;8.80;;
76202;SDS011;64985;46.364;17.008;2023-04-25T05:53:04;13.00;;;7.68;;
76202;SDS011;64985;46.364;17.008;2023-04-25T05:56:07;8.20;;;6.75;;
76202;SDS011;64985;46.364;17.008;2023-04-25T05:59:09;7.35;;;5.65;;
76202;SDS011;64985;46.364;17.008;2023-04-25T06:02:12;6.10;;;4.53;;
76202;SDS011;64985;46.364;17.008;2023-04-25T06:05:14;5.50;;;4.30;;
76202;SDS011;64985;46.364;17.008;2023-04-25T06:08:17;6.53;;;3.80;;
76202;SDS011;64985;46.364;17.008;2023-04-25T06:11:19;6.55;;;3.40;;
76202;SDS011;64985;46.364;17.008;2023-04-25T06:14:21;4.15;;;2.90;;
76202;SDS011;64985;46.364;17.008;2023-04-25T06:17:29;3.78;;;2.92;;
76202;SDS011;64985;46.364;17.008;2023-04-25T06:20:32;4.53;;;2.55;;
76202;SDS011;64985;46.364;17.008;2023-04-25T06:23:34;4.22;;;2.13;;
76202;SDS011;64985;46.364;17.008;2023-04-25T06:26:36;2.63;;;2.10;;
76202;SDS011;64985;46.364;17.008;2023-04-25T06:29:38;3.17;;;1.85;;
76202;SDS011;64985;46.364;17.008;2023-04-25T06:32:41;3.95;;;1.88;;
76202;SDS011;64985;46.364;17.008;2023-04-25T06:35:43;3.05;;;1.50;;
76202;SDS011;64985;46.364;17.008;2023-04-25T06:38:45;7.05;;;1.60;;
76202;SDS011;64985;46.364;17.008;2023-04-25T06:41:48;1.50;;;1.38;;
76202;SDS011;64985;46.364;17.008;2023-04-25T06:44:50;2.30;;;1.38;;
76202;SDS011;64985;46.364;17.008;2023-04-25T06:47:52;1.30;;;1.20;;
76202;SDS011;64985;46.364;17.008;2023-04-25T06:50:55;1.55;;;1.10;;
76202;SDS011;64985;46.364;17.008;2023-04-25T06:53:58;1.38;;;1.27;;
76202;SDS011;64985;46.364;17.008;2023-04-25T06:57:00;1.30;;;1.17;;
76202;SDS011;64985;46.364;17.008;2023-04-25T07:00:03;1.38;;;1.17;;
76202;SDS011;64985;46.364;17.008;2023-04-25T07:03:07;3.38;;;1.30;;
76202;SDS011;64985;46.364;17.008;2023-04-25T07:06:09;1.73;;;1.30;;
76202;SDS011;64985;46.364;17.008;2023-04-25T07:09:11;3.08;;;1.70;;
76202;SDS011;64985;46.364;17.008;2023-04-25T07:12:14;2.45;;;1.52;;
76202;SDS011;64985;46.364;17.008;2023-04-25T07:15:16;2.00;;;1.45;;
76202;SDS011;64985;46.364;17.008;2023-04-25T07:18:18;3.97;;;1.70;;
76202;SDS011;64985;46.364;17.008;2023-04-25T07:21:20;1.70;;;1.45;;
76202;SDS011;64985;46.364;17.008;2023-04-25T07:24:23;1.95;;;1.42;;
76202;SDS011;64985;46.364;17.008;2023-04-25T07:27:25;2.83;;;1.38;;
76202;SDS011;64985;46.364;17.008;2023-04-25T07:30:27;2.22;;;1.50;;
76202;SDS011;64985;46.364;17.008;2023-04-25T07:33:29;1.88;;;1.60;;
76202;SDS011;64985;46.364;17.008;2023-04-25T07:36:32;4.18;;;1.40;;
76202;SDS011;64985;46.364;17.008;2023-04-25T07:39:34;4.80;;;2.35;;
76202;SDS011;64985;46.364;17.008;2023-04-25T07:42:36;1.50;;;1.30;;
76202;SDS011;64985;46.364;17.008;2023-04-25T07:45:39;1.85;;;1.42;;
76202;SDS011;64985;46.364;17.008;2023-04-25T07:48:41;1.30;;;1.20;;
76202;SDS011;64985;46.364;17.008;2023-04-25T07:51:43;3.95;;;1.33;;
76202;SDS011;64985;46.364;17.008;2023-04-25T07:54:45;2.40;;;1.20;;
76202;SDS011;64985;46.364;17.008;2023-04-25T07:57:51;2.22;;;1.40;;
76202;SDS011;64985;46.364;17.008;2023-04-25T08:00:53;1.85;;;1.50;;
76202;SDS011;64985;46.364;17.008;2023-04-25T08:03:55;1.77;;;1.50;;
76202;SDS011;64985;46.364;17.008;2023-04-25T08:06:58;2.33;;;1.60;;
76202;SDS011;64985;46.364;17.008;2023-04-25T08:10:00;3.47;;;1.73;;
76202;SDS011;64985;46.364;17.008;2023-04-25T08:13:02;4.40;;;1.65;;
76202;SDS011;64985;46.364;17.008;2023-04-25T08:16:04;1.50;;;1.35;;
76202;SDS011;64985;46.364;17.008;2023-04-25T08:19:07;5.28;;;1.40;;
76202;SDS011;64985;46.364;17.008;2023-04-25T08:22:09;4.57;;;2.40;;
76202;SDS011;64985;46.364;17.008;2023-04-25T08:25:11;2.72;;;1.90;;
76202;SDS011;64985;46.364;17.008;2023-04-25T08:28:13;1.92;;;1.60;;
76202;SDS011;64985;46.364;17.008;2023-04-25T08:31:16;2.33;;;1.73;;
76202;SDS011;64985;46.364;17.008;2023-04-25T08:34:19;5.85;;;1.63;;
76202;SDS011;64985;46.364;17.008;2023-04-25T08:37:22;5.85;;;2.63;;
76202;SDS011;64985;46.364;17.008;2023-04-25T08:40:24;4.63;;;1.90;;
76202;SDS011;64985;46.364;17.008;2023-04-25T08:43:31;1.50;;;1.35;;
76202;SDS011;64985;46.364;17.008;2023-04-25T08:46:34;2.78;;;1.38;;
76202;SDS011;64985;46.364;17.008;2023-04-25T08:49:37;2.15;;;1.67;;
76202;SDS011;64985;46.364;17.008;2023-04-25T08:52:44;1.75;;;1.48;;
76202;SDS011;64985;46.364;17.008;2023-04-25T08:55:48;2.15;;;1.50;;
76202;SDS011;64985;46.364;17.008;2023-04-25T08:58:51;2.10;;;1.50;;
76202;SDS011;64985;46.364;17.008;2023-04-25T09:01:54;2.15;;;1.50;;
76202;SDS011;64985;46.364;17.008;2023-04-25T09:04:56;1.52;;;1.20;;
76202;SDS011;64985;46.364;17.008;2023-04-25T09:07:59;3.25;;;1.38;;
76202;SDS011;64985;46.364;17.008;2023-04-25T09:11:02;1.40;;;1.30;;
76202;SDS011;64985;46.364;17.008;2023-04-25T09:17:12;2.28;;;1.70;;
76202;SDS011;64985;46.364;17.008;2023-04-25T09:20:14;2.95;;;1.40;;
76202;SDS011;64985;46.364;17.008;2023-04-25T09:23:17;2.15;;;1.42;;
76202;SDS011;64985;46.364;17.008;2023-04-25T09:26:22;2.97;;;1.50;;
76202;SDS011;64985;46.364;17.008;2023-04-25T09:29:31;1.70;;;1.27;;
76202;SDS011;64985;46.364;17.008;2023-04-25T09:32:35;2.25;;;1.20;;
76202;SDS011;64985;46.364;17.008;2023-04-25T09:35:38;5.07;;;1.38;;
76202;SDS011;64985;46.364;17.008;2023-04-25T09:38:45;2.13;;;1.20;;
76202;SDS011;64985;46.364;17.008;2023-04-25T09:41:52;1.65;;;1.20;;
76202;SDS011;64985;46.364;17.008;2023-04-25T09:44:55;1.42;;;1.05;;
76202;SDS011;64985;46.364;17.008;2023-04-25T09:48:02;1.80;;;1.30;;
76202;SDS011;64985;46.364;17.008;2023-04-25T09:54:15;1.95;;;1.30;;
76202;SDS011;64985;46.364;17.008;2023-04-25T09:57:21;2.75;;;1.45;;
76202;SDS011;64985;46.364;17.008;2023-04-25T10:00:26;2.03;;;1.38;;
76202;SDS011;64985;46.364;17.008;2023-04-25T10:03:30;2.50;;;1.20;;
76202;SDS011;64985;46.364;17.008;2023-04-25T10:06:33;2.90;;;1.25;;
76202;SDS011;64985;46.364;17.008;2023-04-25T10:09:37;6.97;;;4.63;;
76202;SDS011;64985;46.364;17.008;2023-04-25T10:12:43;4.55;;;1.50;;
76202;SDS011;64985;46.364;17.008;2023-04-25T10:15:46;5.05;;;3.65;;
76202;SDS011;64985;46.364;17.008;2023-04-25T10:18:49;3.50;;;2.97;;
76202;SDS011;64985;46.364;17.008;2023-04-25T10:21:58;2.17;;;1.50;;
76202;SDS011;64985;46.364;17.008;2023-04-25T10:25:07;1.95;;;1.20;;
76202;SDS011;64985;46.364;17.008;2023-04-25T10:28:09;1.30;;;1.10;;
76202;SDS011;64985;46.364;17.008;2023-04-25T10:31:12;2.10;;;1.20;;
76202;SDS011;64985;46.364;17.008;2023-04-25T10:34:18;1.27;;;1.17;;
76202;SDS011;64985;46.364;17.008;2023-04-25T10:37:24;1.58;;;1.00;;
76202;SDS011;64985;46.364;17.008;2023-04-25T10:40:27;2.90;;;1.27;;
76202;SDS011;64985;46.364;17.008;2023-04-25T10:46:45;3.40;;;1.00;;
76202;SDS011;64985;46.364;17.008;2023-04-25T10:49:48;1.75;;;1.25;;
76202;SDS011;64985;46.364;17.008;2023-04-25T10:52:52;2.22;;;1.13;;
76202;SDS011;64985;46.364;17.008;2023-04-25T10:55:55;1.30;;;1.00;;
76202;SDS011;64985;46.364;17.008;2023-04-25T11:02:19;1.10;;;1.00;;
76202;SDS011;64985;46.364;17.008;2023-04-25T11:05:31;1.02;;;0.93;;
76202;SDS011;64985;46.364;17.008;2023-04-25T11:08:49;3.03;;;1.30;;
76202;SDS011;64985;46.364;17.008;2023-04-25T11:11:56;2.58;;;0.93;;
76202;SDS011;64985;46.364;17.008;2023-04-25T11:15:00;3.97;;;1.00;;
76202;SDS011;64985;46.364;17.008;2023-04-25T11:18:03;0.93;;;0.82;;
76202;SDS011;64985;46.364;17.008;2023-04-25T11:21:06;3.58;;;1.50;;
76202;SDS011;64985;46.364;17.008;2023-04-25T11:24:08;2.42;;;1.10;;
76202;SDS011;64985;46.364;17.008;2023-04-25T11:27:11;1.52;;;0.85;;
76202;SDS011;64985;46.364;17.008;2023-04-25T11:30:14;1.08;;;0.90;;
76202;SDS011;64985;46.364;17.008;2023-04-25T11:33:17;2.80;;;0.90;;
76202;SDS011;64985;46.364;17.008;2023-04-25T11:36:24;1.00;;;0.90;;
76202;SDS011;64985;46.364;17.008;2023-04-25T11:39:28;3.20;;;1.10;;
76202;SDS011;64985;46.364;17.008;2023-04-25T11:42:31;1.10;;;0.80;;
76202;SDS011;64985;46.364;17.008;2023-04-25T11:45:37;1.67;;;1.20;;
76202;SDS011;64985;46.364;17.008;2023-04-25T11:48:39;1.95;;;1.20;;
76202;SDS011;64985;46.364;17.008;2023-04-25T11:51:43;1.60;;;0.90;;
76202;SDS011;64985;46.364;17.008;2023-04-25T11:54:47;2.13;;;0.85;;
76202;SDS011;64985;46.364;17.008;2023-04-25T11:57:49;1.70;;;1.00;;
76202;SDS011;64985;46.364;17.008;2023-04-25T12:00:54;1.77;;;1.00;;
76202;SDS011;64985;46.364;17.008;2023-04-25T12:04:16;1.98;;;1.00;;
76202;SDS011;64985;46.364;17.008;2023-04-25T12:07:21;1.95;;;0.90;;
76202;SDS011;64985;46.364;17.008;2023-04-25T12:10:29;2.55;;;0.88;;
76202;SDS011;64985;46.364;17.008;2023-04-25T12:13:31;3.65;;;1.10;;
76202;SDS011;64985;46.364;17.008;2023-04-25T12:16:43;1.48;;;0.80;;
76202;SDS011;64985;46.364;17.008;2023-04-25T12:19:46;1.85;;;1.00;;
76202;SDS011;64985;46.364;17.008;2023-04-25T12:22:49;2.58;;;0.95;;
76202;SDS011;64985;46.364;17.008;2023-04-25T12:25:52;3.83;;;1.20;;
76202;SDS011;64985;46.364;17.008;2023-04-25T12:28:55;1.52;;;1.00;;
76202;SDS011;64985;46.364;17.008;2023-04-25T12:31:57;2.80;;;1.10;;
76202;SDS011;64985;46.364;17.008;2023-04-25T12:35:00;1.40;;;0.90;;
76202;SDS011;64985;46.364;17.008;2023-04-25T12:38:02;1.95;;;0.90;;
76202;SDS011;64985;46.364;17.008;2023-04-25T12:41:05;1.80;;;0.80;;
76202;SDS011;64985;46.364;17.008;2023-04-25T12:44:07;1.80;;;0.82;;
76202;SDS011;64985;46.364;17.008;2023-04-25T12:47:09;0.98;;;0.73;;
76202;SDS011;64985;46.364;17.008;2023-04-25T12:50:12;1.80;;;0.70;;
76202;SDS011;64985;46.364;17.008;2023-04-25T12:53:15;1.17;;;0.85;;
76202;SDS011;64985;46.364;17.008;2023-04-25T12:56:18;3.42;;;0.82;;
76202;SDS011;64985;46.364;17.008;2023-04-25T12:59:24;0.73;;;0.70;;
76202;SDS011;64985;46.364;17.008;2023-04-25T13:02:26;1.58;;;0.80;;
76202;SDS011;64985;46.364;17.008;2023-04-25T13:05:28;2.92;;;0.80;;
76202;SDS011;64985;46.364;17.008;2023-04-25T13:08:31;1.48;;;0.80;;
76202;SDS011;64985;46.364;17.008;2023-04-25T13:11:33;0.95;;;0.82;;
76202;SDS011;64985;46.364;17.008;2023-04-25T13:14:36;1.60;;;0.77;;
76202;SDS011;64985;46.364;17.008;2023-04-25T13:17:39;5.00;;;1.00;;
76202;SDS011;64985;46.364;17.008;2023-04-25T13:20:41;1.48;;;0.80;;
76202;SDS011;64985;46.364;17.008;2023-04-25T13:23:43;2.33;;;0.80;;
76202;SDS011;64985;46.364;17.008;2023-04-25T13:26:48;1.20;;;0.73;;
76202;SDS011;64985;46.364;17.008;2023-04-25T13:29:50;2.20;;;0.90;;
76202;SDS011;64985;46.364;17.008;2023-04-25T13:32:52;1.77;;;0.82;;
76202;SDS011;64985;46.364;17.008;2023-04-25T13:35:57;3.20;;;1.00;;
76202;SDS011;64985;46.364;17.008;2023-04-25T13:39:11;2.28;;;0.93;;
76202;SDS011;64985;46.364;17.008;2023-04-25T13:42:13;0.98;;;0.77;;
76202;SDS011;64985;46.364;17.008;2023-04-25T13:45:16;2.00;;;1.23;;
76202;SDS011;64985;46.364;17.008;2023-04-25T13:48:18;1.30;;;0.90;;
76202;SDS011;64985;46.364;17.008;2023-04-25T13:51:21;2.35;;;0.85;;
76202;SDS011;64985;46.364;17.008;2023-04-25T13:54:23;3.38;;;0.80;;
76202;SDS011;64985;46.364;17.008;2023-04-25T13:57:26;4.15;;;1.00;;
76202;SDS011;64985;46.364;17.008;2023-04-25T14:00:28;2.25;;;0.90;;
76202;SDS011;64985;46.364;17.008;2023-04-25T14:03:31;1.40;;;0.90;;
76202;SDS011;64985;46.364;17.008;2023-04-25T14:06:33;1.08;;;0.90;;
76202;SDS011;64985;46.364;17.008;2023-04-25T14:09:37;1.40;;;0.90;;
76202;SDS011;64985;46.364;17.008;2023-04-25T14:12:39;1.25;;;0.93;;
76202;SDS011;64985;46.364;17.008;2023-04-25T14:15:41;1.77;;;1.00;;
76202;SDS011;64985;46.364;17.008;2023-04-25T14:18:44;1.83;;;1.00;;
76202;SDS011;64985;46.364;17.008;2023-04-25T14:21:46;1.63;;;1.10;;
76202;SDS011;64985;46.364;17.008;2023-04-25T14:24:49;1.50;;;1.00;;
76202;SDS011;64985;46.364;17.008;2023-04-25T14:27:51;2.58;;;1.27;;
76202;SDS011;64985;46.364;17.008;2023-04-25T14:30:53;2.40;;;1.02;;
76202;SDS011;64985;46.364;17.008;2023-04-25T14:33:55;1.80;;;1.02;;
76202;SDS011;64985;46.364;17.008;2023-04-25T14:37:00;1.30;;;1.10;;
76202;SDS011;64985;46.364;17.008;2023-04-25T14:40:02;1.20;;;1.10;;
76202;SDS011;64985;46.364;17.008;2023-04-25T14:43:06;2.13;;;1.10;;
76202;SDS011;64985;46.364;17.008;2023-04-25T14:46:08;2.10;;;1.30;;
76202;SDS011;64985;46.364;17.008;2023-04-25T14:49:11;1.30;;;1.10;;
76202;SDS011;64985;46.364;17.008;2023-04-25T14:52:13;4.43;;;1.13;;
76202;SDS011;64985;46.364;17.008;2023-04-25T14:55:15;1.58;;;1.20;;
76202;SDS011;64985;46.364;17.008;2023-04-25T14:58:17;3.13;;;1.30;;
76202;SDS011;64985;46.364;17.008;2023-04-25T15:01:19;3.70;;;1.30;;
76202;SDS011;64985;46.364;17.008;2023-04-25T15:04:22;2.90;;;1.30;;
76202;SDS011;64985;46.364;17.008;2023-04-25T15:07:24;3.60;;;1.70;;
76202;SDS011;64985;46.364;17.008;2023-04-25T15:10:27;2.90;;;1.65;;
76202;SDS011;64985;46.364;17.008;2023-04-25T15:13:30;4.60;;;1.42;;
76202;SDS011;64985;46.364;17.008;2023-04-25T15:16:32;1.67;;;1.40;;
76202;SDS011;64985;46.364;17.008;2023-04-25T15:19:34;4.80;;;2.83;;
76202;SDS011;64985;46.364;17.008;2023-04-25T15:22:37;4.57;;;2.75;;
76202;SDS011;64985;46.364;17.008;2023-04-25T15:25:40;2.05;;;1.80;;
76202;SDS011;64985;46.364;17.008;2023-04-25T15:28:42;2.50;;;1.50;;
76202;SDS011;64985;46.364;17.008;2023-04-25T15:31:44;2.67;;;1.15;;
76202;SDS011;64985;46.364;17.008;2023-04-25T15:34:46;2.50;;;1.23;;
76202;SDS011;64985;46.364;17.008;2023-04-25T15:37:48;2.15;;;1.30;;
76202;SDS011;64985;46.364;17.008;2023-04-25T15:40:52;1.67;;;1.13;;
76202;SDS011;64985;46.364;17.008;2023-04-25T15:43:54;1.92;;;1.10;;
76202;SDS011;64985;46.364;17.008;2023-04-25T15:46:56;5.68;;;1.80;;
76202;SDS011;64985;46.364;17.008;2023-04-25T15:49:58;4.20;;;1.30;;
76202;SDS011;64985;46.364;17.008;2023-04-25T15:53:01;5.82;;;1.23;;
76202;SDS011;64985;46.364;17.008;2023-04-25T15:56:06;1.73;;;1.27;;
76202;SDS011;64985;46.364;17.008;2023-04-25T15:59:08;3.15;;;1.50;;
76202;SDS011;64985;46.364;17.008;2023-04-25T16:02:12;5.13;;;1.80;;
76202;SDS011;64985;46.364;17.008;2023-04-25T16:05:15;4.22;;;1.38;;
76202;SDS011;64985;46.364;17.008;2023-04-25T16:08:18;2.05;;;1.10;;
76202;SDS011;64985;46.364;17.008;2023-04-25T16:11:20;4.25;;;1.73;;
76202;SDS011;64985;46.364;17.008;2023-04-25T16:14:22;4.63;;;1.50;;
76202;SDS011;64985;46.364;17.008;2023-04-25T16:17:24;1.67;;;1.42;;
76202;SDS011;64985;46.364;17.008;2023-04-25T16:20:30;2.75;;;1.40;;
76202;SDS011;64985;46.364;17.008;2023-04-25T16:23:32;4.20;;;1.50;;
76202;SDS011;64985;46.364;17.008;2023-04-25T16:26:34;2.38;;;1.77;;
76202;SDS011;64985;46.364;17.008;2023-04-25T16:29:37;4.20;;;1.70;;
76202;SDS011;64985;46.364;17.008;2023-04-25T16:32:39;1.83;;;1.63;;
76202;SDS011;64985;46.364;17.008;2023-04-25T16:35:45;2.22;;;1.52;;
76202;SDS011;64985;46.364;17.008;2023-04-25T16:38:47;1.88;;;1.20;;
76202;SDS011;64985;46.364;17.008;2023-04-25T16:41:50;1.83;;;1.42;;
76202;SDS011;64985;46.364;17.008;2023-04-25T16:44:52;3.15;;;1.35;;
76202;SDS011;64985;46.364;17.008;2023-04-25T16:47:54;3.15;;;1.50;;
76202;SDS011;64985;46.364;17.008;2023-04-25T16:50:57;4.85;;;1.60;;
76202;SDS011;64985;46.364;17.008;2023-04-25T16:53:59;3.15;;;1.30;;
76202;SDS011;64985;46.364;17.008;2023-04-25T16:57:02;2.40;;;1.42;;
76202;SDS011;64985;46.364;17.008;2023-04-25T17:00:06;2.22;;;1.50;;
76202;SDS011;64985;46.364;17.008;2023-04-25T17:03:10;1.80;;;1.40;;
76202;SDS011;64985;46.364;17.008;2023-04-25T17:06:13;2.33;;;1.52;;
76202;SDS011;64985;46.364;17.008;2023-04-25T17:09:16;3.20;;;1.67;;
76202;SDS011;64985;46.364;17.008;2023-04-25T17:12:18;3.35;;;1.60;;
76202;SDS011;64985;46.364;17.008;2023-04-25T17:15:22;2.88;;;1.73;;
76202;SDS011;64985;46.364;17.008;2023-04-25T17:18:24;5.55;;;2.28;;
76202;SDS011;64985;46.364;17.008;2023-04-25T17:21:27;5.63;;;1.73;;
76202;SDS011;64985;46.364;17.008;2023-04-25T17:24:29;6.10;;;2.63;;
76202;SDS011;64985;46.364;17.008;2023-04-25T17:27:32;3.95;;;2.40;;
76202;SDS011;64985;46.364;17.008;2023-04-25T17:30:35;3.80;;;2.53;;
76202;SDS011;64985;46.364;17.008;2023-04-25T17:33:38;4.97;;;2.40;;
76202;SDS011;64985;46.364;17.008;2023-04-25T17:36:41;3.95;;;2.58;;
76202;SDS011;64985;46.364;17.008;2023-04-25T17:39:43;5.22;;;2.58;;
76202;SDS011;64985;46.364;17.008;2023-04-25T17:42:46;3.63;;;2.60;;
76202;SDS011;64985;46.364;17.008;2023-04-25T17:45:50;4.20;;;2.47;;
76202;SDS011;64985;46.364;17.008;2023-04-25T17:48:52;6.68;;;2.78;;
76202;SDS011;64985;46.364;17.008;2023-04-25T17:51:55;5.82;;;2.63;;
76202;SDS011;64985;46.364;17.008;2023-04-25T17:54:58;5.30;;;2.50;;
76202;SDS011;64985;46.364;17.008;2023-04-25T17:58:02;3.88;;;2.70;;
76202;SDS011;64985;46.364;17.008;2023-04-25T18:01:06;4.75;;;2.42;;
76202;SDS011;64985;46.364;17.008;2023-04-25T18:04:09;3.60;;;2.33;;
76202;SDS011;64985;46.364;17.008;2023-04-25T18:07:11;3.83;;;2.20;;
76202;SDS011;64985;46.364;17.008;2023-04-25T18:10:15;4.35;;;2.63;;
76202;SDS011;64985;46.364;17.008;2023-04-25T18:13:18;3.28;;;2.15;;